createdAt,value
2017-11-16T11:28:52.336Z,43.70
2017-11-16T11:29:52.151Z,48.20
2017-11-16T11:31:45.971Z,43.00
2017-11-16T11:32:45.226Z,40.30
2017-11-16T11:34:41.162Z,41.50
2017-11-16T11:35:39.798Z,40.10
2017-11-16T11:37:33.588Z,41.30
2017-11-16T11:38:32.983Z,42.60
2017-11-16T11:40:26.117Z,50.80
2017-11-16T11:41:26.002Z,51.90
2017-11-16T11:43:19.183Z,44.90
2017-11-16T11:44:19.047Z,43.10
2017-11-16T11:46:12.233Z,47.30
2017-11-16T11:47:12.120Z,40.50
2017-11-16T11:49:05.305Z,40.60
2017-11-16T11:50:05.167Z,41.50
2017-11-16T11:51:59.074Z,39.50
2017-11-16T11:52:58.263Z,38.40
2017-11-16T11:54:51.423Z,46.80
2017-11-16T11:55:51.978Z,44.30
2017-11-16T11:57:45.890Z,42.30
2017-11-16T11:58:45.803Z,42.50
2017-11-16T12:00:38.983Z,47.50
2017-11-16T12:01:38.861Z,44.10
2017-11-16T12:03:32.368Z,46.20
2017-11-16T12:04:31.958Z,44.60
2017-11-16T12:06:25.107Z,41.90
2017-11-16T12:07:25.052Z,40.20
2017-11-16T12:09:18.210Z,41.60
2017-11-16T12:10:18.105Z,44.60
2017-11-16T12:12:11.422Z,41.90
2017-11-16T12:13:11.259Z,40.30
2017-11-16T12:15:06.563Z,37.10
2017-11-16T12:16:05.755Z,40.60
2017-11-16T12:17:59.052Z,42.90
2017-11-16T12:18:58.911Z,43.20
2017-11-16T12:20:52.069Z,42.00
2017-11-16T12:21:51.939Z,43.70
2017-11-16T12:22:52.708Z,43.90
2017-11-16T12:23:51.872Z,40.50
2017-11-16T12:24:53.695Z,41.50
2017-11-16T12:25:52.715Z,40.60
2017-11-16T12:26:51.878Z,41.60
2017-11-16T12:27:51.854Z,44.60
2017-11-16T12:28:51.880Z,50.70
2017-11-16T12:29:53.203Z,47.20
2017-11-16T12:30:51.827Z,44.50
2017-11-16T12:31:51.747Z,39.70
2017-11-16T12:32:51.749Z,42.80
2017-11-16T12:33:51.727Z,41.40
2017-11-16T12:34:52.380Z,41.90
2017-11-16T12:35:51.781Z,40.20
2017-11-16T12:36:51.687Z,42.90
2017-11-16T12:37:51.717Z,38.80
2017-11-16T12:38:51.691Z,38.00
2017-11-16T12:39:52.711Z,43.80
2017-11-16T12:40:51.638Z,42.50
2017-11-16T12:41:51.720Z,42.20
2017-11-16T12:42:51.585Z,40.70
2017-11-16T12:43:51.592Z,37.60
2017-11-16T12:44:51.683Z,39.70
2017-11-16T12:45:51.578Z,39.60
2017-11-16T12:46:51.552Z,38.90
2017-11-16T12:47:51.588Z,39.80
2017-11-16T12:48:51.529Z,44.20
2017-11-16T12:49:51.473Z,39.10
2017-11-16T12:50:51.467Z,39.10
2017-11-16T12:51:51.501Z,39.70
2017-11-16T12:52:51.481Z,41.20
2017-11-16T12:53:51.473Z,43.50
2017-11-16T12:54:52.378Z,42.50
2017-11-16T12:55:52.234Z,91.10
2017-11-16T12:56:51.380Z,60.50
2017-11-16T12:57:51.404Z,45.30
2017-11-16T12:58:51.372Z,43.60
2017-11-16T12:59:52.220Z,43.80
2017-11-16T13:00:51.309Z,47.70
2017-11-16T13:01:51.292Z,44.10
2017-11-16T13:02:51.314Z,41.90
2017-11-16T13:03:51.288Z,40.20
2017-11-16T13:04:51.792Z,44.20
2017-11-16T13:05:51.243Z,47.50
2017-11-16T13:06:51.219Z,45.10
2017-11-16T13:07:51.296Z,38.00
2017-11-16T13:08:51.214Z,39.70
2017-11-16T13:09:51.217Z,40.00
2017-11-16T13:10:51.745Z,41.90
2017-11-16T13:11:51.152Z,53.10
2017-11-16T13:12:51.154Z,45.50
2017-11-16T13:13:51.140Z,47.20
2017-11-16T13:14:51.119Z,43.60
2017-11-16T13:15:51.881Z,41.20
2017-11-16T13:16:51.722Z,42.00
2017-11-16T13:17:51.048Z,39.20
2017-11-16T13:18:51.738Z,42.20
2017-11-16T13:19:51.044Z,39.70
2017-11-16T13:20:51.711Z,43.40
2017-11-16T13:21:50.966Z,42.30
2017-11-16T13:22:50.970Z,41.20
2017-11-16T13:23:51.033Z,40.20
2017-11-16T13:24:51.720Z,40.80
2017-11-16T13:25:51.756Z,40.40
2017-11-16T13:26:50.926Z,49.10
2017-11-16T13:27:51.729Z,37.40
2017-11-16T13:28:50.831Z,39.90
2017-11-16T13:29:51.716Z,41.10
2017-11-16T13:30:50.907Z,42.00
2017-11-16T13:31:52.213Z,39.00
2017-11-16T13:32:51.726Z,41.40
2017-11-16T13:33:50.748Z,40.60
2017-11-16T13:34:50.798Z,43.60
2017-11-16T13:35:50.719Z,41.30
2017-11-16T13:36:50.771Z,44.60
2017-11-16T13:37:50.817Z,44.50
2017-11-16T13:38:51.354Z,42.20
2017-11-16T13:39:51.218Z,43.70
2017-11-16T13:40:51.259Z,42.00
2017-11-16T13:41:51.365Z,51.60
2017-11-16T13:42:50.646Z,62.80
2017-11-16T13:43:50.677Z,45.10
2017-11-16T13:44:51.411Z,44.00
2017-11-16T13:45:50.611Z,44.70
2017-11-16T13:46:50.618Z,45.50
2017-11-16T13:47:50.573Z,44.50
2017-11-16T13:48:50.556Z,55.70
2017-11-16T13:49:50.467Z,53.50
2017-11-16T13:50:50.494Z,41.60
2017-11-16T13:51:51.264Z,43.40
2017-11-16T13:52:51.231Z,43.30
2017-11-16T13:53:50.499Z,40.40
2017-11-16T13:54:51.237Z,41.60
2017-11-16T13:55:50.461Z,38.30
2017-11-16T13:56:50.419Z,40.40
2017-11-16T13:57:51.226Z,42.20
2017-11-16T13:58:50.422Z,38.60
2017-11-16T13:59:50.335Z,43.60
2017-11-16T14:00:50.353Z,39.90
2017-11-16T14:01:50.345Z,40.20
2017-11-16T14:02:50.342Z,39.30
2017-11-16T14:03:50.358Z,41.60
2017-11-16T14:04:50.246Z,43.10
2017-11-16T14:05:50.276Z,42.60
2017-11-16T14:06:50.266Z,48.20
2017-11-16T14:07:50.221Z,41.20
2017-11-16T14:08:50.235Z,43.40
2017-11-16T14:09:50.219Z,42.00
2017-11-16T14:10:50.742Z,44.00
2017-11-16T14:11:50.185Z,43.00
2017-11-16T14:12:50.151Z,42.70
2017-11-16T14:13:50.127Z,47.20
2017-11-16T14:14:50.121Z,44.50
2017-11-16T14:15:50.093Z,41.60
2017-11-16T14:16:50.063Z,38.20
2017-11-16T14:17:50.091Z,40.20
2017-11-16T14:18:51.847Z,38.20
2017-11-16T14:19:50.028Z,43.40
2017-11-16T14:20:50.089Z,45.60
2017-11-16T14:21:49.965Z,42.60
2017-11-16T14:22:49.986Z,39.00
2017-11-16T14:23:49.983Z,39.30
2017-11-16T14:24:49.955Z,44.30
2017-11-16T14:25:50.720Z,39.60
2017-11-16T14:26:49.939Z,41.40
2017-11-16T14:27:49.894Z,43.20
2017-11-16T14:28:49.879Z,40.70
2017-11-16T14:29:49.914Z,41.60
2017-11-16T14:30:49.868Z,42.50
2017-11-16T14:31:49.806Z,49.60
2017-11-16T14:32:49.822Z,46.30
2017-11-16T14:33:49.828Z,40.60
2017-11-16T14:34:49.758Z,41.30
2017-11-16T14:35:49.766Z,44.10
2017-11-16T14:36:49.692Z,41.90
2017-11-16T14:37:49.712Z,43.00
2017-11-16T14:38:49.687Z,44.40
2017-11-16T14:39:49.631Z,43.90
2017-11-16T14:40:49.696Z,40.80
2017-11-16T14:41:49.655Z,38.10
2017-11-16T14:42:49.664Z,42.10
2017-11-16T14:43:49.680Z,42.80
2017-11-16T14:44:49.648Z,42.90
2017-11-16T14:45:49.581Z,44.80
2017-11-16T14:46:49.593Z,41.30
2017-11-16T14:47:51.238Z,43.90
2017-11-16T14:48:49.618Z,39.80
2017-11-16T14:49:49.471Z,40.10
2017-11-16T14:50:49.587Z,41.20
2017-11-16T14:51:49.587Z,42.60
2017-11-16T14:52:49.530Z,46.50
2017-11-16T14:53:49.533Z,41.20
2017-11-16T14:54:49.467Z,42.70
2017-11-16T14:55:49.454Z,42.10
2017-11-16T14:56:49.493Z,43.10
2017-11-16T14:57:49.460Z,49.50
2017-11-16T14:58:49.403Z,50.80
2017-11-16T14:59:49.382Z,47.90
2017-11-16T15:00:49.345Z,40.40
2017-11-16T15:01:50.252Z,44.40
2017-11-16T15:02:49.325Z,45.30
2017-11-16T15:03:49.298Z,43.30
2017-11-16T15:04:49.292Z,54.20
2017-11-16T15:05:49.279Z,45.00
2017-11-16T15:06:49.322Z,48.60
2017-11-16T15:07:49.244Z,44.80
2017-11-16T15:08:49.233Z,45.10
2017-11-16T15:09:49.223Z,45.20
2017-11-16T15:10:49.171Z,50.10
2017-11-16T15:11:49.183Z,50.30
2017-11-16T15:12:49.184Z,44.80
2017-11-16T15:13:49.908Z,42.20
2017-11-16T15:14:49.118Z,46.60
2017-11-16T15:15:49.129Z,45.70
2017-11-16T15:16:49.087Z,48.00
2017-11-16T15:17:49.220Z,52.70
2017-11-16T15:18:49.076Z,45.60
2017-11-16T15:19:49.012Z,46.00
2017-11-16T15:20:49.034Z,47.50
2017-11-16T15:21:48.945Z,49.40
2017-11-16T15:22:49.013Z,44.60
2017-11-16T15:23:48.977Z,46.20
2017-11-16T15:24:48.943Z,49.10
2017-11-16T15:27:20.820Z,49.90
2017-11-16T15:28:20.717Z,53.00
2017-11-16T15:30:14.657Z,46.30
2017-11-16T15:31:13.751Z,51.10
2017-11-16T15:33:07.301Z,48.60
2017-11-16T15:34:06.811Z,45.30
2017-11-16T15:35:59.984Z,46.40
2017-11-16T15:36:59.869Z,43.50
2017-11-16T15:38:53.174Z,51.50
2017-11-16T15:39:53.039Z,50.70
2017-11-16T15:41:46.221Z,45.80
2017-11-16T15:42:46.117Z,48.00
2017-11-16T15:44:40.022Z,50.00
2017-11-16T15:45:39.162Z,55.80
2017-11-16T15:47:32.310Z,49.50
2017-11-16T15:48:32.224Z,44.90
2017-11-16T15:50:25.415Z,43.70
2017-11-16T15:51:25.259Z,43.30
2017-11-16T15:53:18.433Z,50.80
2017-11-16T15:54:18.309Z,44.10
2017-11-16T15:56:12.980Z,44.10
2017-11-16T15:57:12.862Z,45.50
2017-11-16T15:59:06.021Z,48.90
2017-11-16T16:00:05.901Z,44.90
2017-11-16T16:01:59.091Z,46.70
2017-11-16T16:02:58.949Z,44.90
2017-11-16T16:04:52.110Z,45.30
2017-11-16T16:05:51.970Z,43.40
2017-11-16T16:07:45.188Z,41.50
2017-11-16T16:08:45.045Z,40.20
2017-11-16T16:10:38.251Z,44.10
2017-11-16T16:11:38.085Z,41.60
2017-11-16T16:13:31.251Z,45.50
2017-11-16T16:14:31.131Z,40.70
2017-11-16T16:16:24.335Z,43.20
2017-11-16T16:17:24.206Z,47.60
2017-11-16T16:19:17.398Z,44.40
2017-11-16T16:20:17.260Z,40.70
2017-11-16T16:22:10.419Z,42.30
2017-11-16T16:23:10.322Z,43.20
2017-11-16T16:25:05.018Z,37.50
2017-11-16T16:26:04.892Z,39.70
2017-11-16T16:27:58.062Z,42.60
2017-11-16T16:28:57.927Z,44.80
2017-11-16T16:29:57.914Z,40.10
2017-11-16T16:30:57.891Z,41.70
2017-11-16T16:31:57.881Z,41.80
2017-11-16T16:32:57.918Z,45.40
2017-11-16T16:33:57.921Z,48.50
2017-11-16T16:34:57.831Z,45.90
2017-11-16T16:35:57.815Z,39.30
2017-11-16T16:36:57.794Z,39.10
2017-11-16T16:37:57.819Z,43.60
2017-11-16T16:38:57.756Z,43.20
2017-11-16T16:39:57.768Z,40.50
2017-11-16T16:40:57.738Z,42.30
2017-11-16T16:41:57.768Z,52.80
2017-11-16T16:42:57.693Z,43.70
2017-11-16T16:43:57.669Z,48.80
2017-11-16T16:44:57.719Z,43.00
2017-11-16T16:45:57.629Z,61.90
2017-11-16T16:46:57.618Z,108.20
2017-11-16T16:47:57.604Z,85.30
2017-11-16T16:48:57.601Z,108.40
2017-11-16T16:49:57.607Z,68.50
2017-11-16T16:50:57.577Z,61.70
2017-11-16T16:51:57.546Z,49.30
2017-11-16T16:52:57.529Z,65.50
2017-11-16T16:53:57.503Z,53.60
2017-11-16T16:54:57.484Z,54.50
2017-11-16T16:55:57.501Z,55.80
2017-11-16T16:56:57.467Z,52.80
2017-11-16T16:57:57.435Z,50.80
2017-11-16T16:58:57.430Z,49.90
2017-11-16T16:59:57.400Z,53.40
2017-11-16T17:00:57.394Z,46.70
2017-11-16T17:01:57.396Z,48.70
2017-11-16T17:02:57.379Z,48.60
2017-11-16T17:03:57.334Z,53.50
2017-11-16T17:04:57.338Z,52.80
2017-11-16T17:05:57.310Z,55.70
2017-11-16T17:06:57.291Z,51.20
2017-11-16T17:07:57.284Z,52.00
2017-11-16T17:08:57.265Z,53.40
2017-11-16T17:09:57.225Z,53.60
2017-11-16T17:10:57.209Z,58.10
2017-11-16T17:11:57.194Z,57.00
2017-11-16T17:12:57.187Z,60.10
2017-11-16T17:13:57.148Z,55.00
2017-11-16T17:14:57.129Z,58.10
2017-11-16T17:15:57.184Z,59.90
2017-11-16T17:16:57.116Z,49.90
2017-11-16T17:17:57.096Z,54.50
2017-11-16T17:18:57.083Z,64.30
2017-11-16T17:19:57.075Z,51.30
2017-11-16T17:20:57.045Z,51.60
2017-11-16T17:21:57.042Z,55.80
2017-11-16T17:22:57.046Z,54.20
2017-11-16T17:23:57.018Z,59.30
2017-11-16T17:24:56.971Z,55.50
2017-11-16T17:25:56.967Z,62.40
2017-11-16T17:26:56.930Z,60.00
2017-11-16T17:27:56.920Z,52.70
2017-11-16T17:28:56.930Z,53.20
2017-11-16T17:29:56.891Z,50.80
2017-11-16T17:30:56.939Z,55.80
2017-11-16T17:31:56.858Z,51.10
2017-11-16T17:32:56.856Z,54.90
2017-11-16T17:33:56.821Z,50.70
2017-11-16T17:34:56.809Z,47.70
2017-11-16T17:35:56.811Z,50.10
2017-11-16T17:36:56.767Z,52.50
2017-11-16T17:37:56.754Z,53.70
2017-11-16T17:38:56.731Z,50.90
2017-11-16T17:39:56.767Z,44.90
2017-11-16T17:40:56.735Z,50.80
2017-11-16T17:41:56.706Z,48.40
2017-11-16T17:42:56.677Z,54.50
2017-11-16T17:43:56.661Z,50.60
2017-11-16T17:44:56.644Z,55.50
2017-11-16T17:45:56.633Z,49.70
2017-11-16T17:46:56.598Z,46.90
2017-11-16T17:47:56.597Z,50.10
2017-11-16T17:48:56.560Z,47.30
2017-11-16T17:49:56.579Z,46.40
2017-11-16T17:50:56.553Z,46.40
2017-11-16T17:51:56.526Z,44.40
2017-11-16T17:52:56.488Z,48.80
2017-11-16T17:53:56.487Z,45.80
2017-11-16T17:54:56.457Z,45.60
2017-11-16T17:55:56.438Z,53.00
2017-11-16T17:56:56.447Z,44.20
2017-11-16T17:57:56.422Z,44.40
2017-11-16T17:58:56.407Z,48.20
2017-11-16T17:59:56.378Z,52.00
2017-11-16T18:00:56.337Z,48.00
2017-11-16T18:01:56.344Z,49.50
2017-11-16T18:02:56.338Z,46.90
2017-11-16T18:03:56.333Z,47.50
2017-11-16T18:04:56.305Z,52.60
2017-11-16T18:05:56.285Z,51.50
2017-11-16T18:06:56.304Z,54.60
2017-11-16T18:07:56.249Z,52.70
2017-11-16T18:08:56.235Z,50.50
2017-11-16T18:09:56.277Z,51.20
2017-11-16T18:10:56.199Z,51.50
2017-11-16T18:11:56.171Z,50.40
2017-11-16T18:12:56.137Z,53.30
2017-11-16T18:13:56.134Z,48.40
2017-11-16T18:14:56.151Z,49.30
2017-11-16T18:15:56.133Z,53.40
2017-11-16T18:16:56.207Z,50.40
2017-11-16T18:17:59.240Z,51.20
2017-11-16T18:18:56.076Z,52.50
2017-11-16T18:19:56.030Z,48.40
2017-11-16T18:20:56.038Z,48.10
2017-11-16T18:21:56.002Z,54.20
2017-11-16T18:22:56.007Z,50.80
2017-11-16T18:23:55.962Z,47.70
2017-11-16T18:24:55.944Z,46.30
2017-11-16T18:25:55.934Z,51.40
2017-11-16T18:26:55.955Z,53.00
2017-11-16T18:27:55.853Z,54.20
2017-11-16T18:28:55.852Z,52.80
2017-11-16T18:29:55.862Z,52.90
2017-11-16T18:30:55.820Z,53.80
2017-11-16T18:31:55.812Z,59.40
2017-11-16T18:32:55.808Z,55.10
2017-11-16T18:33:55.787Z,65.60
2017-11-16T18:34:55.766Z,59.30
2017-11-16T18:35:55.727Z,58.30
2017-11-16T18:36:55.716Z,58.80
2017-11-16T18:37:55.701Z,58.90
2017-11-16T18:38:55.725Z,64.10
2017-11-16T18:39:55.678Z,61.60
2017-11-16T18:40:55.737Z,60.50
2017-11-16T18:41:55.637Z,57.90
2017-11-16T18:42:55.672Z,60.50
2017-11-16T18:43:55.620Z,63.20
2017-11-16T18:44:55.563Z,65.70
2017-11-16T18:45:55.598Z,65.10
2017-11-16T18:46:55.562Z,66.50
2017-11-16T18:47:55.539Z,64.80
2017-11-16T18:48:55.547Z,63.40
2017-11-16T18:49:55.503Z,68.40
2017-11-16T18:50:55.467Z,83.30
2017-11-16T18:51:55.502Z,77.50
2017-11-16T18:52:55.443Z,83.70
2017-11-16T18:53:55.473Z,77.80
2017-11-16T18:54:55.463Z,68.20
2017-11-16T18:55:55.424Z,81.40
2017-11-16T18:56:55.385Z,76.90
2017-11-16T18:57:55.381Z,70.30
2017-11-16T18:58:55.382Z,86.00
2017-11-16T18:59:55.325Z,79.60
2017-11-16T19:00:55.345Z,84.00
2017-11-16T19:01:55.319Z,81.50
2017-11-16T19:02:55.297Z,86.70
2017-11-16T19:03:55.281Z,86.60
2017-11-16T19:04:55.269Z,80.00
2017-11-16T19:05:55.283Z,88.90
2017-11-16T19:06:55.211Z,94.80
2017-11-16T19:07:55.204Z,87.20
2017-11-16T19:08:55.191Z,91.20
2017-11-16T19:09:55.183Z,89.50
2017-11-16T19:10:55.163Z,93.50
2017-11-16T19:11:55.143Z,85.20
2017-11-16T19:12:55.156Z,90.20
2017-11-16T19:13:55.139Z,85.50
2017-11-16T19:14:55.103Z,83.90
2017-11-16T19:15:55.107Z,96.40
2017-11-16T19:17:05.875Z,89.30
2017-11-16T19:17:55.119Z,86.70
2017-11-16T19:18:55.073Z,89.40
2017-11-16T19:24:29.754Z,102.50
2017-11-16T19:25:23.158Z,98.40
2017-11-16T19:31:14.357Z,90.00
2017-11-16T19:32:14.306Z,91.60
2017-11-16T19:34:07.564Z,90.50
2017-11-16T19:35:07.474Z,88.20
2017-11-16T19:37:02.026Z,100.20
2017-11-16T19:38:01.960Z,91.00
2017-11-16T19:39:56.884Z,87.30
2017-11-16T19:40:55.014Z,94.60
2017-11-16T19:42:48.543Z,89.70
2017-11-16T19:43:48.107Z,84.00
2017-11-16T19:45:41.347Z,83.90
2017-11-16T19:46:41.284Z,88.90
2017-11-16T19:48:34.367Z,107.50
2017-11-16T19:49:34.315Z,105.40
2017-11-16T19:51:27.436Z,94.70
2017-11-16T19:52:27.369Z,96.90
2017-11-16T19:54:20.501Z,94.30
2017-11-16T19:55:20.407Z,97.30
2017-11-16T19:57:13.544Z,97.70
2017-11-16T19:58:13.575Z,102.90
2017-11-16T20:00:06.657Z,101.70
2017-11-16T20:01:06.523Z,104.70
2017-11-16T20:02:59.858Z,101.90
2017-11-16T20:03:59.743Z,103.30
2017-11-16T20:05:53.005Z,106.60
2017-11-16T20:06:52.851Z,101.90
2017-11-16T20:08:47.861Z,111.20
2017-11-16T20:09:46.143Z,101.20
2017-11-16T20:10:46.144Z,100.10
2017-11-16T20:11:46.324Z,103.10
2017-11-16T20:12:46.114Z,114.50
2017-11-16T20:13:46.126Z,119.50
2017-11-16T20:14:46.103Z,105.70
2017-11-16T20:15:46.023Z,111.30
2017-11-16T20:16:46.049Z,108.20
2017-11-16T20:17:46.264Z,113.30
2017-11-16T20:18:45.978Z,107.70
2017-11-16T20:19:45.976Z,116.90
2017-11-16T20:20:45.937Z,105.30
2017-11-16T20:21:46.686Z,112.10
2017-11-16T20:26:02.787Z,111.40
2017-11-16T20:27:02.726Z,96.20
2017-11-16T20:28:55.937Z,104.80
2017-11-16T20:29:55.857Z,103.10
2017-11-16T20:31:49.140Z,103.80
2017-11-16T20:32:49.015Z,109.80
2017-11-16T20:33:48.997Z,110.00
2017-11-16T20:34:49.004Z,100.90
2017-11-16T20:35:48.948Z,107.80
2017-11-16T20:36:48.934Z,96.70
2017-11-16T20:37:48.914Z,101.50
2017-11-16T20:38:48.909Z,101.50
2017-11-16T20:39:48.875Z,101.10
2017-11-16T20:40:48.851Z,101.30
2017-11-16T20:41:48.837Z,108.70
2017-11-16T20:42:48.822Z,108.60
2017-11-16T20:43:48.808Z,102.10
2017-11-16T20:44:48.785Z,98.20
2017-11-16T20:45:48.778Z,109.20
2017-11-16T20:46:48.745Z,97.00
2017-11-16T20:47:48.744Z,104.60
2017-11-16T20:48:48.734Z,99.40
2017-11-16T20:49:48.693Z,107.70
2017-11-16T20:50:48.675Z,101.90
2017-11-16T20:51:48.657Z,99.00
2017-11-16T20:52:48.639Z,119.90
2017-11-16T20:53:48.627Z,146.00
2017-11-16T20:54:48.611Z,141.80
2017-11-16T20:55:48.599Z,117.90
2017-11-16T20:56:48.576Z,106.00
2017-11-16T20:57:48.561Z,107.80
2017-11-16T20:58:48.593Z,110.00
2017-11-16T20:59:48.528Z,101.00
2017-11-16T21:00:48.538Z,117.40
2017-11-16T21:01:48.504Z,108.20
2017-11-16T21:02:48.510Z,112.00
2017-11-16T21:03:48.469Z,94.80
2017-11-16T21:04:48.467Z,110.40
2017-11-16T21:05:48.444Z,124.90
2017-11-16T21:06:48.464Z,114.30
2017-11-16T21:07:48.404Z,107.30
2017-11-16T21:08:48.375Z,106.00
2017-11-16T21:09:48.356Z,113.80
2017-11-16T21:10:48.340Z,108.30
2017-11-16T21:11:48.346Z,104.00
2017-11-16T21:12:48.313Z,116.50
2017-11-16T21:13:48.284Z,102.60
2017-11-16T21:14:48.263Z,113.30
2017-11-16T21:15:48.252Z,122.50
2017-11-16T21:16:48.235Z,123.40
2017-11-16T21:17:48.232Z,121.50
2017-11-16T21:18:48.197Z,126.70
2017-11-16T21:19:48.180Z,119.50
2017-11-16T21:20:48.160Z,115.60
2017-11-16T21:21:48.145Z,122.40
2017-11-16T21:22:48.127Z,118.80
2017-11-16T21:23:48.109Z,119.30
2017-11-16T21:24:48.102Z,114.00
2017-11-16T21:25:48.081Z,130.90
2017-11-16T21:26:48.061Z,127.40
2017-11-16T21:27:48.037Z,122.40
2017-11-16T21:28:48.050Z,125.60
2017-11-16T21:29:48.008Z,133.60
2017-11-16T21:30:47.995Z,128.70
2017-11-16T21:31:47.973Z,118.90
2017-11-16T21:32:47.950Z,132.80
2017-11-16T21:33:47.948Z,121.00
2017-11-16T21:34:47.947Z,125.90
2017-11-16T21:35:47.904Z,134.60
2017-11-16T21:36:47.889Z,127.50
2017-11-16T21:37:47.874Z,135.20
2017-11-16T21:38:47.857Z,138.90
2017-11-16T21:39:47.843Z,121.80
2017-11-16T21:40:47.819Z,122.50
2017-11-16T21:41:47.802Z,147.10
2017-11-16T21:42:47.788Z,132.90
2017-11-16T21:43:47.770Z,139.90
2017-11-16T21:44:47.752Z,124.80
2017-11-16T21:45:47.738Z,130.50
2017-11-16T21:46:47.724Z,139.10
2017-11-16T21:47:47.704Z,143.50
2017-11-16T21:48:47.681Z,137.60
2017-11-16T21:49:47.667Z,129.20
2017-11-16T21:50:47.660Z,124.40
2017-11-16T21:51:47.632Z,141.50
2017-11-16T21:52:47.622Z,124.80
2017-11-16T21:53:47.598Z,131.80
2017-11-16T21:54:47.598Z,129.80
2017-11-16T21:55:47.570Z,140.90
2017-11-16T21:56:47.559Z,147.50
2017-11-16T21:57:47.534Z,137.40
2017-11-16T21:58:47.543Z,137.40
2017-11-16T21:59:47.524Z,139.90
2017-11-16T22:00:47.485Z,137.40
2017-11-16T22:01:47.465Z,135.80
2017-11-16T22:02:47.449Z,143.10
2017-11-16T22:03:47.430Z,140.30
2017-11-16T22:04:47.415Z,140.00
2017-11-16T22:05:47.393Z,139.30
2017-11-16T22:06:47.380Z,135.50
2017-11-16T22:07:47.491Z,140.10
2017-11-16T22:08:47.351Z,151.40
2017-11-16T22:09:47.330Z,141.10
2017-11-16T22:10:47.313Z,155.30
2017-11-16T22:11:47.296Z,147.10
2017-11-16T22:12:47.279Z,150.40
2017-11-16T22:13:47.269Z,164.70
2017-11-16T22:14:47.245Z,160.70
2017-11-16T22:15:47.249Z,152.00
2017-11-16T22:16:47.215Z,155.60
2017-11-16T22:17:47.205Z,148.80
2017-11-16T22:18:47.178Z,154.80
2017-11-16T22:19:47.160Z,156.00
2017-11-16T22:20:47.153Z,161.90
2017-11-16T22:21:47.152Z,172.60
2017-11-16T22:22:47.110Z,154.00
2017-11-16T22:23:47.093Z,163.50
2017-11-16T22:24:47.075Z,157.90
2017-11-16T22:25:47.059Z,159.90
2017-11-16T22:26:47.043Z,159.80
2017-11-16T22:27:47.027Z,182.00
2017-11-16T22:28:47.010Z,169.70
2017-11-16T22:29:46.990Z,163.00
2017-11-16T22:30:46.974Z,156.40
2017-11-16T22:31:46.957Z,162.80
2017-11-16T22:32:46.946Z,164.10
2017-11-16T22:33:46.923Z,168.20
2017-11-16T22:34:46.920Z,158.50
2017-11-16T22:35:46.887Z,177.40
2017-11-16T22:36:46.872Z,173.30
2017-11-16T22:37:46.856Z,175.40
2017-11-16T22:38:46.843Z,172.30
2017-11-16T22:39:46.823Z,179.40
2017-11-16T22:40:46.801Z,168.20
2017-11-16T22:41:46.786Z,177.70
2017-11-16T22:42:46.772Z,167.30
2017-11-16T22:43:46.753Z,175.40
2017-11-16T22:44:46.833Z,180.70
2017-11-16T22:45:46.719Z,168.90
2017-11-16T22:46:46.702Z,181.70
2017-11-16T22:47:46.686Z,164.90
2017-11-16T22:48:46.695Z,167.10
2017-11-16T22:49:46.688Z,180.20
2017-11-16T22:50:46.634Z,184.20
2017-11-16T22:51:46.648Z,181.10
2017-11-16T22:52:46.601Z,186.80
2017-11-16T22:53:46.581Z,177.40
2017-11-16T22:54:46.566Z,174.60
2017-11-16T22:55:46.549Z,172.30
2017-11-16T22:56:46.532Z,183.70
2017-11-16T22:57:46.533Z,162.50
2017-11-16T22:58:46.503Z,184.80
2017-11-16T22:59:46.482Z,178.40
2017-11-16T23:00:46.467Z,178.00
2017-11-16T23:01:46.449Z,175.80
2017-11-16T23:02:46.433Z,183.00
2017-11-16T23:03:46.414Z,175.70
2017-11-16T23:04:46.399Z,190.60
2017-11-16T23:05:46.382Z,167.80
2017-11-16T23:06:46.364Z,188.80
2017-11-16T23:07:46.349Z,184.00
2017-11-16T23:08:46.332Z,177.30
2017-11-16T23:09:46.315Z,175.60
2017-11-16T23:10:46.297Z,176.50
2017-11-16T23:11:46.280Z,160.60
2017-11-16T23:12:46.263Z,171.10
2017-11-16T23:13:46.247Z,162.70
2017-11-16T23:14:46.231Z,169.20
2017-11-16T23:15:46.211Z,165.00
2017-11-16T23:16:46.198Z,163.70
2017-11-16T23:17:46.177Z,167.50
2017-11-16T23:18:46.162Z,160.00
2017-11-16T23:19:46.145Z,178.50
2017-11-16T23:20:46.130Z,178.40
2017-11-16T23:21:46.111Z,172.10
2017-11-16T23:22:46.094Z,173.80
2017-11-16T23:23:46.077Z,185.20
2017-11-16T23:24:46.060Z,173.80
2017-11-16T23:25:46.044Z,176.90
2017-11-16T23:26:46.031Z,187.30
2017-11-16T23:27:46.008Z,210.50
2017-11-16T23:28:45.996Z,190.20
2017-11-16T23:29:45.976Z,196.80
2017-11-16T23:30:45.960Z,185.40
2017-11-16T23:31:45.942Z,196.70
2017-11-16T23:32:45.941Z,197.20
2017-11-16T23:33:45.911Z,208.60
2017-11-16T23:34:45.903Z,183.10
2017-11-16T23:35:45.877Z,218.80
2017-11-16T23:36:45.859Z,201.00
2017-11-16T23:37:45.849Z,204.10
2017-11-16T23:38:45.837Z,199.40
2017-11-16T23:39:45.807Z,184.00
2017-11-16T23:40:45.789Z,212.40
2017-11-16T23:41:45.773Z,234.00
2017-11-16T23:42:45.758Z,200.40
2017-11-16T23:43:45.742Z,195.60
2017-11-16T23:44:45.723Z,198.10
2017-11-16T23:45:45.706Z,202.20
2017-11-16T23:46:45.691Z,185.30
2017-11-16T23:47:45.668Z,188.40
2017-11-16T23:48:45.657Z,179.80
2017-11-16T23:49:45.640Z,192.20
2017-11-16T23:50:45.622Z,197.40
2017-11-16T23:51:45.609Z,184.80
2017-11-16T23:52:45.586Z,181.20
2017-11-16T23:53:45.578Z,182.70
2017-11-16T23:54:45.552Z,180.10
2017-11-16T23:55:45.542Z,182.90
2017-11-16T23:56:45.520Z,175.10
2017-11-16T23:57:45.501Z,165.40
2017-11-16T23:58:45.486Z,183.20
2017-11-16T23:59:45.469Z,169.00
